Terminal Aerodrome Forecast
Issued by NWS Charleston, WV

Current Version | Previous Version | Text Only | Print | Product List | Glossary Off
Versions: 1 2 3 4 5 6 7 8 9 10 11 12 13 14 15 16 17 18 19 20 21 22 23 24 25 26 27 28

000
FTUS41 KRLX 231300 AAA
TAFCRW
TAF AMD
KCRW 231350Z 2314/2412 23006KT P6SM VCSH SCT040 BKN100
      TEMPO 2314/2315 5SM -SHRA BKN035
     FM231700 24009KT P6SM VCTS BKN035CB
     FM232100 27007KT 4SM TSRA BR BKN030CB
     FM240100 29004KT 4SM TSRA BR BKN028CB
     FM240400 30003KT 3SM -SHRA BR OVC024
     FM240800 32004KT 6SM BR OVC016=

USA.gov is the U.S. government's official web portal to all federal, state and local government web resources and services.